Time;durP1;ratioP1;P1;durP2;ratioP2;P2;SDS_P1;SDS_P2;PMS_P1;PMS_P2;Temp;Humidity;BMP_temperature;BMP_pressure;BME280_temperature;BME280_humidity;BME280_pressure;Samples;Min_cycle;Max_cycle;Signal;HPM_P1;HPM_P2
2021/11/28 00:00:27;;;;;;;;;;;;;;;20.22;42.37;93585.34;1043803;28;2378;-58
2021/11/28 00:00:57;;;;;;;;;;;;;;;20.22;42.40;93580.09;1044569;28;1044;-57
2021/11/28 00:01:27;;;;;;;;;;;;;;;20.23;43.16;93586.91;1044481;28;1063;-58
2021/11/28 00:01:57;;;;;;;;;;;;;;;20.23;42.86;93586.91;1044721;28;1129;-57
2021/11/28 00:02:29;;;;;;;;;;;;;;;20.23;43.22;93588.78;1044244;28;1910;-57
2021/11/28 00:03:01;;;;;;;;;;;;;;;20.24;42.77;93587.66;1043929;28;1426;-57
2021/11/28 00:03:32;;;;;;;;;;;;;;;20.23;42.27;93586.13;1043891;28;1174;-55
2021/11/28 00:04:02;;;;;;;;;;;;;;;20.24;42.31;93582.41;1044300;28;1336;-58
2021/11/28 00:04:32;;;;;;;;;;;;;;;20.24;42.38;93582.41;1044579;28;1042;-56
2021/11/28 00:05:03;;;;;;;;;;;;;;;20.24;42.60;93583.19;1042149;28;2418;-57
2021/11/28 00:05:34;;;;;;;;;;;;;;;20.24;42.98;93582.41;1044418;28;830;-58
2021/11/28 00:06:09;;;;;;;;;;;;;;;20.24;42.36;93582.41;1044726;28;1025;-58
2021/11/28 00:06:40;;;;;;;;;;;;;;;20.22;42.28;93579.31;1044487;28;1084;-59
2021/11/28 00:08:14;;;;;;;;;;;;;;;20.22;42.25;93574.84;1043711;28;1631;-55
2021/11/28 00:11:21;;;;;;;;;;;;;;;20.23;42.68;93580.88;1043979;28;1217;-55
2021/11/28 00:12:37;;;;;;;;;;;;;;;20.21;42.11;93578.56;1042961;28;1196;-57
2021/11/28 00:12:59;;;;;;;;;;;;;;;20.22;42.55;93584.59;1043309;28;1513;-58
2021/11/28 00:14:37;;;;;;;;;;;;;;;20.22;42.95;93572.22;1039611;28;2040;-58
2021/11/28 00:15:08;;;;;;;;;;;;;;;20.22;42.59;93580.09;1036654;28;1717;-58
2021/11/28 00:15:39;;;;;;;;;;;;;;;20.22;42.37;93574.06;1041434;28;847;-56
2021/11/28 00:16:09;;;;;;;;;;;;;;;20.23;42.13;93575.63;1043854;28;1410;-57
2021/11/28 00:16:39;;;;;;;;;;;;;;;20.23;42.15;93575.63;1041487;28;1076;-58
2021/11/28 00:17:10;;;;;;;;;;;;;;;20.23;42.43;93573.75;1041603;28;1371;-56
2021/11/28 00:17:40;;;;;;;;;;;;;;;20.23;42.14;93578.25;1044384;28;1458;-58
2021/11/28 00:18:11;;;;;;;;;;;;;;;20.22;42.32;93566.94;1042853;28;1664;-56
2021/11/28 00:18:41;;;;;;;;;;;;;;;20.22;41.79;93574.84;1043786;28;1470;-57
2021/11/28 00:19:11;;;;;;;;;;;;;;;20.21;42.09;93565.41;1044434;28;1139;-57
2021/11/28 00:19:42;;;;;;;;;;;;;;;20.22;42.05;93568.81;1042851;28;1999;-58
2021/11/28 00:20:13;;;;;;;;;;;;;;;20.21;42.69;93570.69;1042123;28;1070;-57
2021/11/28 00:20:44;;;;;;;;;;;;;;;20.20;42.20;93561.25;1044724;28;1049;-58
2021/11/28 00:21:14;;;;;;;;;;;;;;;20.21;42.15;93572.53;1042630;28;2256;-57
2021/11/28 00:21:45;;;;;;;;;;;;;;;20.20;42.46;93569.13;1042388;28;1486;-57
2021/11/28 00:22:15;;;;;;;;;;;;;;;20.20;42.44;93566.50;1043083;28;1984;-57
2021/11/28 00:22:45;;;;;;;;;;;;;;;20.21;42.58;93568.06;1044367;28;1410;-57
2021/11/28 00:23:15;;;;;;;;;;;;;;;20.21;42.18;93567.28;1044361;28;1012;-56
2021/11/28 00:23:46;;;;;;;;;;;;;;;20.21;42.12;93565.41;1044070;28;1141;-56
2021/11/28 00:24:16;;;;;;;;;;;;;;;20.23;42.36;93560.59;1044216;28;1142;-58
2021/11/28 00:24:46;;;;;;;;;;;;;;;20.22;42.33;93568.81;1044180;28;1146;-57
2021/11/28 00:25:17;;;;;;;;;;;;;;;20.21;42.08;93572.53;1043494;28;1237;-57
2021/11/28 00:25:48;;;;;;;;;;;;;;;20.22;41.97;93568.81;1041716;28;1104;-56
2021/11/28 00:26:18;;;;;;;;;;;;;;;20.22;42.18;93566.16;1044307;28;1359;-57
2021/11/28 00:26:49;;;;;;;;;;;;;;;20.21;42.18;93570.69;1043054;28;2257;-58
2021/11/28 00:27:19;;;;;;;;;;;;;;;20.21;41.76;93565.41;1043009;28;1091;-56
2021/11/28 00:27:50;;;;;;;;;;;;;;;20.22;42.08;93563.53;1043626;28;1083;-58
2021/11/28 00:28:20;;;;;;;;;;;;;;;20.21;41.82;93564.66;1044310;28;1111;-58
2021/11/28 00:28:51;;;;;;;;;;;;;;;20.20;41.64;93560.47;1043978;28;1260;-58
2021/11/28 00:29:21;;;;;;;;;;;;;;;20.19;42.05;93559.72;1044289;28;1426;-55
2021/11/28 00:29:51;;;;;;;;;;;;;;;20.20;42.16;93560.47;1044640;28;1132;-58
2021/11/28 00:30:23;;;;;;;;;;;;;;;20.20;41.48;93563.88;1044583;28;1186;-58
2021/11/28 00:30:53;;;;;;;;;;;;;;;20.20;41.63;93563.09;1044619;28;1032;-55
2021/11/28 00:31:24;;;;;;;;;;;;;;;20.20;41.79;93560.47;1042034;28;1435;-55
2021/11/28 00:31:55;;;;;;;;;;;;;;;20.19;41.77;93561.53;1042506;28;1947;-56
2021/11/28 00:32:26;;;;;;;;;;;;;;;20.19;41.74;93556.28;1044283;28;1142;-56
2021/11/28 00:32:58;;;;;;;;;;;;;;;20.18;41.69;93557.34;1044274;28;1079;-58
2021/11/28 00:33:28;;;;;;;;;;;;;;;20.18;41.67;93562.63;1043570;28;1196;-57
2021/11/28 00:33:58;;;;;;;;;;;;;;;20.18;41.58;93563.38;1043589;28;1394;-55
2021/11/28 00:34:29;;;;;;;;;;;;;;;20.18;41.50;93557.34;1044215;28;1166;-58
2021/11/28 00:34:59;;;;;;;;;;;;;;;20.17;41.66;93563.72;1044120;28;1052;-57
2021/11/28 00:35:29;;;;;;;;;;;;;;;20.18;41.65;93565.25;1044683;28;1107;-57
2021/11/28 00:36:00;;;;;;;;;;;;;;;20.17;41.59;93561.84;1044512;28;1045;-58
2021/11/28 00:36:30;;;;;;;;;;;;;;;20.17;41.59;93567.09;1044173;28;1311;-58
2021/11/28 00:37:00;;;;;;;;;;;;;;;20.18;42.14;93566.03;1043239;28;2030;-57
2021/11/28 00:37:30;;;;;;;;;;;;;;;20.19;41.36;93569.44;1044270;28;1016;-58
2021/11/28 00:38:01;;;;;;;;;;;;;;;20.18;41.62;93562.63;1044100;28;1022;-58
2021/11/28 00:38:31;;;;;;;;;;;;;;;20.19;41.57;93566.81;1043272;28;1684;-57
2021/11/28 00:39:01;;;;;;;;;;;;;;;20.19;42.13;93564.16;1043475;28;1125;-55
2021/11/28 00:39:32;;;;;;;;;;;;;;;20.19;41.80;93564.16;1044609;28;808;-58
2021/11/28 00:40:02;;;;;;;;;;;;;;;20.19;41.78;93567.59;1044428;28;1294;-58
2021/11/28 00:40:33;;;;;;;;;;;;;;;20.17;41.30;93558.47;1043800;28;1427;-58
2021/11/28 00:41:03;;;;;;;;;;;;;;;20.18;41.69;93562.63;1043951;28;1061;-57
2021/11/28 00:41:34;;;;;;;;;;;;;;;20.19;41.72;93564.16;1044406;28;658;-58
2021/11/28 00:42:06;;;;;;;;;;;;;;;20.18;41.51;93568.66;1043160;28;1986;-55
2021/11/28 00:42:37;;;;;;;;;;;;;;;20.18;41.20;93570.50;1044126;28;1906;-58
2021/11/28 00:43:07;;;;;;;;;;;;;;;20.17;41.58;93561.84;1043360;28;1060;-56
2021/11/28 00:43:37;;;;;;;;;;;;;;;20.18;41.49;93562.63;1044145;28;1115;-55
2021/11/28 00:44:08;;;;;;;;;;;;;;;20.18;41.36;93566.03;1044368;28;1135;-56
2021/11/28 00:44:38;;;;;;;;;;;;;;;20.18;41.41;93557.34;1044948;28;979;-58
2021/11/28 00:45:08;;;;;;;;;;;;;;;20.17;41.57;93567.09;1044179;28;1021;-54
2021/11/28 00:45:39;;;;;;;;;;;;;;;20.17;41.65;93561.84;1044658;28;1075;-56
2021/11/28 00:46:09;;;;;;;;;;;;;;;20.18;41.78;93573.13;1043804;28;1454;-56
2021/11/28 00:46:39;;;;;;;;;;;;;;;20.17;41.46;93566.34;1040814;28;1027;-58
2021/11/28 00:47:10;;;;;;;;;;;;;;;20.18;41.27;93562.63;1041832;28;1998;-56
2021/11/28 00:47:41;;;;;;;;;;;;;;;20.17;41.70;93564.47;1044587;28;1257;-58
2021/11/28 00:48:11;;;;;;;;;;;;;;;20.17;41.49;93567.09;1043541;28;2264;-58
2021/11/28 00:48:43;;;;;;;;;;;;;;;20.17;41.20;93567.09;1044390;28;1198;-61
2021/11/28 00:49:21;;;;;;;;;;;;;;;20.15;41.38;93564.03;1044122;28;1193;-57
2021/11/28 00:50:47;;;;;;;;;;;;;;;20.17;41.42;93566.34;1046606;28;1074;-58
2021/11/28 00:51:50;;;;;;;;;;;;;;;20.16;41.30;93564.81;1047010;28;1935;-58
2021/11/28 00:52:20;;;;;;;;;;;;;;;20.16;41.57;93565.56;1047622;28;992;-52
2021/11/28 00:52:51;;;;;;;;;;;;;;;20.16;40.86;93562.94;1047609;28;1199;-57
2021/11/28 00:53:21;;;;;;;;;;;;;;;20.15;40.91;93563.28;1046820;28;1127;-57
2021/11/28 00:53:52;;;;;;;;;;;;;;;20.16;41.38;93565.56;1047331;28;1115;-56
2021/11/28 00:54:22;;;;;;;;;;;;;;;20.16;41.42;93562.16;1047165;28;1141;-57
2021/11/28 00:54:53;;;;;;;;;;;;;;;20.16;41.00;93570.06;1047567;28;1522;-55
2021/11/28 00:55:23;;;;;;;;;;;;;;;20.16;40.71;93565.56;1043198;28;1288;-56
2021/11/28 00:55:54;;;;;;;;;;;;;;;20.16;41.19;93576.09;1043268;28;1558;-57
2021/11/28 00:56:24;;;;;;;;;;;;;;;20.16;41.02;93567.44;1043719;28;1265;-58
2021/11/28 00:56:54;;;;;;;;;;;;;;;20.15;41.44;93565.91;1042703;28;1925;-57
2021/11/28 00:57:25;;;;;;;;;;;;;;;20.16;41.08;93559.53;1047571;28;1146;-57
2021/11/28 00:57:56;;;;;;;;;;;;;;;20.16;40.77;93567.44;1046726;28;1037;-57
2021/11/28 00:58:26;;;;;;;;;;;;;;;20.16;40.91;93562.16;1047924;28;1175;-59
2021/11/28 00:58:57;;;;;;;;;;;;;;;20.16;41.38;93570.84;1047936;28;1198;-55
2021/11/28 00:59:28;;;;;;;;;;;;;;;20.15;40.64;93569.28;1048545;28;1055;-56
2021/11/28 01:00:04;;;;;;;;;;;;;;;20.16;41.19;93570.84;1047715;28;1284;-57
2021/11/28 01:00:34;;;;;;;;;;;;;;;20.16;40.66;93570.06;1047825;28;1374;-55
2021/11/28 01:01:04;;;;;;;;;;;;;;;20.17;40.92;93574.25;1047561;28;1108;-57
2021/11/28 01:01:35;;;;;;;;;;;;;;;20.16;40.58;93570.06;1046986;28;2034;-57
2021/11/28 01:02:05;;;;;;;;;;;;;;;20.16;40.87;93572.69;1046298;28;1919;-56
2021/11/28 01:02:36;;;;;;;;;;;;;;;20.16;40.87;93575.31;1047899;28;1891;-57
2021/11/28 01:03:06;;;;;;;;;;;;;;;20.15;41.00;93579.06;1046793;28;1144;-56
2021/11/28 01:03:36;;;;;;;;;;;;;;;20.16;40.84;93575.31;1046622;28;1099;-58
2021/11/28 01:04:08;;;;;;;;;;;;;;;20.16;41.05;93583.22;1046858;28;1048;-58
2021/11/28 01:04:38;;;;;;;;;;;;;;;20.15;40.41;93574.53;1046191;28;1092;-57
2021/11/28 01:05:09;;;;;;;;;;;;;;;20.16;41.05;93575.31;1043141;28;1394;-58
2021/11/28 01:05:39;;;;;;;;;;;;;;;20.16;40.76;93575.31;1041008;28;1027;-58
2021/11/28 01:06:10;;;;;;;;;;;;;;;20.15;40.52;93574.53;1044593;28;1305;-57
2021/11/28 01:06:40;;;;;;;;;;;;;;;20.16;40.80;93572.69;1044918;28;1119;-57
2021/11/28 01:07:13;;;;;;;;;;;;;;;20.16;40.59;93580.59;1043024;28;2031;-57
2021/11/28 01:07:43;;;;;;;;;;;;;;;20.17;40.81;93582.13;1039639;28;1499;-58
2021/11/28 01:08:13;;;;;;;;;;;;;;;20.17;40.70;93576.88;1044763;28;1029;-58
2021/11/28 01:08:44;;;;;;;;;;;;;;;20.17;40.80;93574.25;1046957;28;1110;-56
2021/11/28 01:09:14;;;;;;;;;;;;;;;20.16;40.79;93580.59;1043669;28;1516;-57
2021/11/28 01:09:45;;;;;;;;;;;;;;;20.16;40.72;93576.09;1041312;28;1025;-57
2021/11/28 01:10:15;;;;;;;;;;;;;;;20.17;40.48;93582.13;1043806;28;1454;-58
2021/11/28 01:10:47;;;;;;;;;;;;;;;20.16;40.76;93586.63;1042483;28;1426;-58
2021/11/28 01:11:17;;;;;;;;;;;;;;;20.17;40.59;93582.13;1044485;28;1095;-57
2021/11/28 01:11:47;;;;;;;;;;;;;;;20.16;40.37;93580.59;1044449;28;1079;-58
2021/11/28 01:12:18;;;;;;;;;;;;;;;20.16;40.40;93577.94;1038782;28;2018;-58
2021/11/28 01:12:48;;;;;;;;;;;;;;;20.16;40.43;93585.84;1039095;28;1842;-58
2021/11/28 01:13:19;;;;;;;;;;;;;;;20.16;40.25;93585.84;1039504;28;1434;-58
2021/11/28 01:13:49;;;;;;;;;;;;;;;20.16;40.48;93586.63;1039490;28;1305;-58
2021/11/28 01:14:20;;;;;;;;;;;;;;;20.15;40.44;93589.59;1044311;28;1321;-57
2021/11/28 01:14:50;;;;;;;;;;;;;;;20.16;40.03;93591.09;1044167;28;2098;-56
2021/11/28 01:15:21;;;;;;;;;;;;;;;20.15;40.21;93590.31;1043706;28;1556;-57
2021/11/28 01:15:51;;;;;;;;;;;;;;;20.16;40.57;93594.50;1044321;28;1005;-58
2021/11/28 01:16:22;;;;;;;;;;;;;;;20.16;40.64;93588.47;1044631;28;1362;-58
2021/11/28 01:16:52;;;;;;;;;;;;;;;20.16;39.78;93596.38;1042902;28;1171;-58
2021/11/28 01:17:22;;;;;;;;;;;;;;;20.16;40.14;93597.13;1043523;28;1587;-58
2021/11/28 01:17:52;;;;;;;;;;;;;;;20.16;39.93;93599.78;1042485;28;2321;-56
2021/11/28 01:18:23;;;;;;;;;;;;;;;20.15;40.51;93595.59;1044212;28;1131;-58
2021/11/28 01:18:53;;;;;;;;;;;;;;;20.15;40.09;93600.84;1040213;28;1359;-58
2021/11/28 01:19:24;;;;;;;;;;;;;;;20.15;40.78;93602.72;1039901;28;1131;-58
2021/11/28 01:19:54;;;;;;;;;;;;;;;20.16;40.56;93599.00;1039954;28;1351;-58
2021/11/28 01:20:24;;;;;;;;;;;;;;;20.16;40.50;93599.00;1039439;28;1139;-58
2021/11/28 01:20:55;;;;;;;;;;;;;;;20.16;40.65;93601.63;1042181;28;1340;-58
2021/11/28 01:21:25;;;;;;;;;;;;;;;20.16;40.54;93604.25;1043234;28;2300;-58
2021/11/28 01:21:56;;;;;;;;;;;;;;;20.15;40.38;93598.22;1044450;28;1006;-58
2021/11/28 01:22:27;;;;;;;;;;;;;;;20.16;40.21;93601.63;1043863;28;2012;-58
2021/11/28 01:22:57;;;;;;;;;;;;;;;20.15;40.28;93598.22;1042829;28;1665;-58
2021/11/28 01:23:27;;;;;;;;;;;;;;;20.16;40.09;93593.72;1044017;28;1143;-56
2021/11/28 01:23:58;;;;;;;;;;;;;;;20.16;39.94;93596.38;1044439;28;1308;-58
2021/11/28 01:24:28;;;;;;;;;;;;;;;20.15;40.40;93592.22;1044234;28;1158;-58
2021/11/28 01:24:58;;;;;;;;;;;;;;;20.15;39.94;93590.31;1044546;28;1036;-57
2021/11/28 01:25:29;;;;;;;;;;;;;;;20.14;39.99;93593.28;1044596;28;1103;-58
2021/11/28 01:25:59;;;;;;;;;;;;;;;20.14;40.17;93585.41;1044431;28;1036;-58
2021/11/28 01:26:31;;;;;;;;;;;;;;;20.13;39.86;93587.25;1043531;28;1651;-58
2021/11/28 01:27:03;;;;;;;;;;;;;;;20.14;40.13;93593.28;1043281;28;891;-58
2021/11/28 01:27:34;;;;;;;;;;;;;;;20.14;39.61;93588.81;1043681;28;1983;-58
2021/11/28 01:28:04;;;;;;;;;;;;;;;20.15;40.33;93594.84;1042066;28;1450;-57
2021/11/28 01:28:34;;;;;;;;;;;;;;;20.15;40.01;93592.22;1044020;28;2338;-58
2021/11/28 01:29:05;;;;;;;;;;;;;;;20.16;39.90;93597.13;1044019;28;1167;-58
2021/11/28 01:29:35;;;;;;;;;;;;;;;20.15;39.68;93589.59;1044111;28;1074;-58
2021/11/28 01:30:06;;;;;;;;;;;;;;;20.15;39.78;93592.22;1044265;28;1057;-57
2021/11/28 01:30:36;;;;;;;;;;;;;;;20.15;39.71;93589.59;1044119;28;1169;-58
2021/11/28 01:31:06;;;;;;;;;;;;;;;20.14;39.78;93590.66;1042809;28;1972;-57
2021/11/28 01:31:37;;;;;;;;;;;;;;;20.15;39.90;93584.31;1044892;28;718;-58
2021/11/28 01:32:07;;;;;;;;;;;;;;;20.14;39.86;93590.66;1044321;28;1100;-58
2021/11/28 01:32:38;;;;;;;;;;;;;;;20.13;39.81;93589.13;1043148;28;1924;-58
2021/11/28 01:33:08;;;;;;;;;;;;;;;20.13;39.81;93591.75;1044077;28;1139;-58
2021/11/28 01:33:38;;;;;;;;;;;;;;;20.12;39.45;93596.25;1043977;28;1081;-56
2021/11/28 01:34:09;;;;;;;;;;;;;;;20.13;39.47;93594.41;1044434;28;1273;-55
2021/11/28 01:34:39;;;;;;;;;;;;;;;20.12;39.64;93595.47;1040431;28;1083;-58
2021/11/28 01:35:10;;;;;;;;;;;;;;;20.13;39.41;93600.41;1044522;28;1109;-57
2021/11/28 01:35:40;;;;;;;;;;;;;;;20.13;39.77;93599.66;1043363;28;1469;-54
2021/11/28 01:36:11;;;;;;;;;;;;;;;20.12;39.42;93595.47;1043531;28;1319;-56
2021/11/28 01:36:42;;;;;;;;;;;;;;;20.12;39.72;93601.50;1044190;28;1116;-57
2021/11/28 01:37:12;;;;;;;;;;;;;;;20.12;39.55;93600.72;1044077;28;1113;-55
2021/11/28 01:37:44;;;;;;;;;;;;;;;20.12;39.72;93600.72;1040869;28;1959;-57
2021/11/28 01:38:18;;;;;;;;;;;;;;;20.12;39.50;93600.72;1044114;28;1127;-57
2021/11/28 01:38:49;;;;;;;;;;;;;;;20.13;39.51;93597.03;1043957;28;1084;-56
2021/11/28 01:39:19;;;;;;;;;;;;;;;20.13;39.50;93599.66;1043925;28;1181;-57
2021/11/28 01:39:49;;;;;;;;;;;;;;;20.13;39.70;93604.91;1044388;28;1285;-56
2021/11/28 01:40:20;;;;;;;;;;;;;;;20.13;39.41;93604.91;1043408;28;1277;-56
2021/11/28 01:40:51;;;;;;;;;;;;;;;20.12;39.50;93608.63;1044079;28;1103;-57
2021/11/28 01:41:21;;;;;;;;;;;;;;;20.12;39.48;93606.78;1043471;28;1521;-57
2021/11/28 01:41:51;;;;;;;;;;;;;;;20.12;39.55;93606.78;1044305;28;1076;-55
2021/11/28 01:42:35;;;;;;;;;;;;;;;20.11;39.46;93605.22;1039713;28;1972;-57
2021/11/28 01:43:06;;;;;;;;;;;;;;;20.10;39.30;93606.31;1040208;28;1371;-56
2021/11/28 01:43:37;;;;;;;;;;;;;;;20.13;39.58;93612.81;1043592;28;1774;-57
2021/11/28 01:44:08;;;;;;;;;;;;;;;20.12;39.59;93611.25;1044201;28;1073;-56
2021/11/28 01:44:38;;;;;;;;;;;;;;;20.13;39.50;93612.81;1044488;28;1178;-57
2021/11/28 01:45:10;;;;;;;;;;;;;;;20.12;39.33;93612.03;1044269;28;1069;-57
2021/11/28 01:45:40;;;;;;;;;;;;;;;20.12;39.21;93614.66;1043171;28;2434;-55
2021/11/28 01:46:10;;;;;;;;;;;;;;;20.12;39.42;93616.50;1044237;28;1299;-57
2021/11/28 01:46:41;;;;;;;;;;;;;;;20.12;38.98;93616.50;1044037;28;1194;-57
2021/11/28 01:47:11;;;;;;;;;;;;;;;20.10;39.18;93618.69;1042409;28;1593;-58
2021/11/28 01:47:42;;;;;;;;;;;;;;;20.10;38.93;93613.44;1040611;28;2147;-58
2021/11/28 01:48:14;;;;;;;;;;;;;;;20.10;38.95;93618.69;1044156;28;1194;-56
2021/11/28 01:48:44;;;;;;;;;;;;;;;20.10;39.09;93618.69;1044482;28;1153;-57
2021/11/28 01:49:15;;;;;;;;;;;;;;;20.12;39.27;93613.88;1044246;28;1114;-54
2021/11/28 01:49:45;;;;;;;;;;;;;;;20.12;38.64;93619.16;1044373;28;1162;-58
2021/11/28 01:50:16;;;;;;;;;;;;;;;20.11;38.93;93626.25;1044582;28;1064;-58
2021/11/28 01:50:48;;;;;;;;;;;;;;;20.10;39.09;93616.06;1044447;28;1150;-58
2021/11/28 01:51:18;;;;;;;;;;;;;;;20.10;39.15;93618.69;1043652;28;1185;-58
2021/11/28 01:51:50;;;;;;;;;;;;;;;20.11;38.92;93625.50;1044652;28;1036;-57
2021/11/28 01:52:22;;;;;;;;;;;;;;;20.11;38.94;93625.50;1044863;28;1107;-58
2021/11/28 01:52:54;;;;;;;;;;;;;;;20.10;38.88;93627.34;1042809;28;1831;-58
2021/11/28 01:53:25;;;;;;;;;;;;;;;20.10;39.07;93623.94;1043553;28;1076;-58
2021/11/28 01:53:55;;;;;;;;;;;;;;;20.10;38.86;93626.59;1045424;28;1170;-58
2021/11/28 01:54:26;;;;;;;;;;;;;;;20.09;38.88;93622.44;1045125;28;1115;-57
2021/11/28 01:54:56;;;;;;;;;;;;;;;20.11;39.05;93622.88;1043513;28;2167;-56
2021/11/28 01:55:27;;;;;;;;;;;;;;;20.10;39.24;93618.69;1045141;28;1211;-58
2021/11/28 01:55:58;;;;;;;;;;;;;;;20.10;38.77;93619.47;1042665;28;1655;-58
2021/11/28 01:56:28;;;;;;;;;;;;;;;20.09;39.00;93617.16;1042995;28;1678;-58
2021/11/28 01:56:58;;;;;;;;;;;;;;;20.09;39.64;93612.66;1044942;28;1135;-53
2021/11/28 01:57:29;;;;;;;;;;;;;;;20.10;39.01;93614.22;1044662;28;1095;-58
2021/11/28 01:57:59;;;;;;;;;;;;;;;20.10;39.24;93613.44;1043287;28;2238;-57
2021/11/28 01:58:30;;;;;;;;;;;;;;;20.10;39.09;93616.06;1044804;28;1261;-58
2021/11/28 01:59:00;;;;;;;;;;;;;;;20.10;39.30;93603.69;1045050;28;1100;-55
2021/11/28 01:59:30;;;;;;;;;;;;;;;20.09;39.39;93607.41;1037180;28;1804;-58
2021/11/28 02:00:03;;;;;;;;;;;;;;;20.09;39.05;93604.75;1038197;28;1893;-57
2021/11/28 02:00:35;;;;;;;;;;;;;;;20.10;38.81;93608.16;1041004;28;850;-56
2021/11/28 02:01:07;;;;;;;;;;;;;;;20.10;39.21;93602.91;1040832;28;1149;-57
2021/11/28 02:01:38;;;;;;;;;;;;;;;20.10;38.87;93605.53;1040005;28;1189;-58
2021/11/28 02:02:08;;;;;;;;;;;;;;;20.09;38.89;93604.03;1040272;28;1269;-56
2021/11/28 02:02:38;;;;;;;;;;;;;;;20.09;38.88;93604.03;1040930;28;1894;-58
2021/11/28 02:03:11;;;;;;;;;;;;;;;20.09;38.80;93602.13;1044596;28;1135;-53
2021/11/28 02:03:42;;;;;;;;;;;;;;;20.09;38.81;93610.03;1044389;28;1115;-54
2021/11/28 02:04:14;;;;;;;;;;;;;;;20.09;38.45;93609.28;1044806;28;1470;-57
2021/11/28 02:04:45;;;;;;;;;;;;;;;20.09;38.57;93607.41;1044131;28;1918;-55
2021/11/28 02:05:16;;;;;;;;;;;;;;;20.08;38.59;93605.09;1040742;28;1076;-58
2021/11/28 02:05:51;;;;;;;;;;;;;;;20.08;38.43;93605.88;1041070;28;1081;-58
2021/11/28 02:06:21;;;;;;;;;;;;;;;20.08;38.56;93605.88;1044697;28;1367;-58
2021/11/28 02:06:51;;;;;;;;;;;;;;;20.08;38.68;93607.72;1044874;28;1127;-58
2021/11/28 02:07:22;;;;;;;;;;;;;;;20.08;38.56;93607.72;1043976;28;2108;-56
2021/11/28 02:07:52;;;;;;;;;;;;;;;20.08;38.60;93605.09;1039520;28;1518;-56
2021/11/28 02:08:24;;;;;;;;;;;;;;;20.07;38.67;93609.59;1040651;28;1207;-58
2021/11/28 02:08:55;;;;;;;;;;;;;;;20.08;38.56;93607.72;1040956;28;1069;-56
2021/11/28 02:09:27;;;;;;;;;;;;;;;20.08;38.68;93610.34;1044931;28;1158;-57
2021/11/28 02:10:18;;;;;;;;;;;;;;;20.08;38.72;93610.34;1043242;28;1642;-56
2021/11/28 02:10:51;;;;;;;;;;;;;;;20.08;39.08;93611.13;1040706;28;1245;-57
2021/11/28 02:11:42;;;;;;;;;;;;;;;20.09;38.45;93611.91;1039140;28;1366;-56
2021/11/28 02:12:13;;;;;;;;;;;;;;;20.08;38.33;93611.13;1035315;28;1560;-57
2021/11/28 02:12:44;;;;;;;;;;;;;;;20.07;38.56;93614.84;1042186;28;1569;-56
2021/11/28 02:13:15;;;;;;;;;;;;;;;20.07;38.54;93603.56;1041206;28;1867;-56
2021/11/28 02:14:05;;;;;;;;;;;;;;;20.07;38.79;93608.84;1042413;28;1160;-54
2021/11/28 02:14:56;;;;;;;;;;;;;;;20.07;38.33;93609.59;1044757;28;1209;-56
2021/11/28 02:15:26;;;;;;;;;;;;;;;20.07;38.51;93609.59;1043893;28;2159;-57
2021/11/28 02:15:57;;;;;;;;;;;;;;;20.07;38.30;93606.94;1045290;28;1076;-58
2021/11/28 02:16:27;;;;;;;;;;;;;;;20.08;38.57;93615.63;1044937;28;1383;-57
2021/11/28 02:16:57;;;;;;;;;;;;;;;20.07;38.31;93611.47;1045172;28;1175;-58
2021/11/28 02:17:38;;;;;;;;;;;;;;;20.06;38.29;93615.94;1041328;28;978;-53
2021/11/28 02:18:15;;;;;;;;;;;;;;;20.07;38.65;93608.84;1043676;28;972;-58
2021/11/28 02:19:06;;;;;;;;;;;;;;;20.08;38.36;93615.63;1041678;28;1368;-51
2021/11/28 02:19:36;;;;;;;;;;;;;;;20.07;38.19;93609.59;1044344;28;1150;-58
2021/11/28 02:20:07;;;;;;;;;;;;;;;20.07;38.13;93608.84;1045125;28;1073;-58
2021/11/28 02:20:55;;;;;;;;;;;;;;;20.08;38.66;93599.84;1042915;28;1615;-58
2021/11/28 02:21:26;;;;;;;;;;;;;;;20.07;38.29;93601.69;1044959;28;1119;-57
2021/11/28 02:21:56;;;;;;;;;;;;;;;20.08;38.66;93605.09;1045271;28;1089;-57
2021/11/28 02:22:31;;;;;;;;;;;;;;;20.08;38.70;93602.47;1042368;28;1914;-56
2021/11/28 02:23:01;;;;;;;;;;;;;;;20.07;38.49;93599.06;1044728;28;1057;-57
2021/11/28 02:23:32;;;;;;;;;;;;;;;20.07;39.08;93599.06;1044839;28;812;-55
2021/11/28 02:24:05;;;;;;;;;;;;;;;20.07;38.51;93601.69;1044777;28;1720;-54
2021/11/28 02:24:56;;;;;;;;;;;;;;;20.07;38.82;93593.06;1044678;28;1178;-56
2021/11/28 02:25:46;;;;;;;;;;;;;;;20.07;38.60;93593.81;1043464;28;1977;-57
2021/11/28 02:26:36;;;;;;;;;;;;;;;20.07;38.70;93593.06;1040742;28;710;-58
2021/11/28 02:27:23;;;;;;;;;;;;;;;20.08;38.24;93594.56;1042746;28;1409;-56
2021/11/28 02:27:54;;;;;;;;;;;;;;;20.09;38.33;93596.13;1043450;28;1558;-58
2021/11/28 02:28:24;;;;;;;;;;;;;;;20.07;38.13;93598.31;1044842;28;1126;-55
2021/11/28 02:28:55;;;;;;;;;;;;;;;20.06;38.20;93592.28;1039755;28;1506;-58
2021/11/28 02:29:25;;;;;;;;;;;;;;;20.06;38.44;93587.00;1044710;28;913;-52
2021/11/28 02:29:55;;;;;;;;;;;;;;;20.06;38.39;93584.38;1040589;28;1371;-55
2021/11/28 02:30:32;;;;;;;;;;;;;;;20.07;38.49;93582.53;1036089;28;1915;-57
2021/11/28 02:31:03;;;;;;;;;;;;;;;20.08;38.80;93584.06;1041012;28;1176;-55
2021/11/28 02:31:34;;;;;;;;;;;;;;;20.08;38.51;93584.06;1037764;28;1369;-54
2021/11/28 02:32:24;;;;;;;;;;;;;;;20.07;38.57;93588.53;1040647;28;1302;-56
2021/11/28 02:33:15;;;;;;;;;;;;;;;20.07;38.54;93583.28;1042146;28;1046;-57
2021/11/28 02:33:47;;;;;;;;;;;;;;;20.07;38.29;93587.78;1044861;28;1085;-58
2021/11/28 02:34:19;;;;;;;;;;;;;;;20.07;38.38;93574.63;1045732;28;1076;-58
2021/11/28 02:34:50;;;;;;;;;;;;;;;20.06;38.45;93576.50;1042225;28;1274;-56
2021/11/28 02:35:20;;;;;;;;;;;;;;;20.06;38.21;93578.34;1045099;28;1024;-56
2021/11/28 02:35:51;;;;;;;;;;;;;;;20.06;38.40;93580.97;1043848;28;2338;-57
2021/11/28 02:36:21;;;;;;;;;;;;;;;20.05;38.18;93572.31;1045114;28;1335;-57
2021/11/28 02:36:52;;;;;;;;;;;;;;;20.06;38.25;93570.47;1044241;28;1516;-56
2021/11/28 02:37:22;;;;;;;;;;;;;;;20.07;37.92;93574.63;1042014;28;1545;-57
2021/11/28 02:37:53;;;;;;;;;;;;;;;20.05;38.07;93572.31;1042525;28;1186;-58
2021/11/28 02:38:23;;;;;;;;;;;;;;;20.06;37.99;93570.47;1043106;28;1601;-58
2021/11/28 02:38:54;;;;;;;;;;;;;;;20.05;37.88;93564.41;1042630;28;1052;-58
2021/11/28 02:39:24;;;;;;;;;;;;;;;20.04;38.04;93568.16;1043487;28;1155;-56
2021/11/28 02:39:54;;;;;;;;;;;;;;;20.05;38.37;93568.94;1044898;28;1262;-58
2021/11/28 02:40:25;;;;;;;;;;;;;;;20.06;38.24;93565.19;1043630;28;1832;-57
2021/11/28 02:40:56;;;;;;;;;;;;;;;20.03;37.80;93561.34;1042504;28;1438;-51
2021/11/28 02:41:27;;;;;;;;;;;;;;;20.04;37.97;93570.78;1044923;28;1123;-56
2021/11/28 02:41:57;;;;;;;;;;;;;;;20.05;38.10;93566.31;1043569;28;1034;-58
2021/11/28 02:42:27;;;;;;;;;;;;;;;20.05;38.06;93568.94;1044038;28;1906;-56
2021/11/28 02:42:58;;;;;;;;;;;;;;;20.05;37.77;93568.94;1043516;28;1240;-57
2021/11/28 02:43:30;;;;;;;;;;;;;;;20.05;37.75;93577.56;1044271;28;1080;-56
2021/11/28 02:44:00;;;;;;;;;;;;;;;20.05;37.78;93582.09;1044589;28;1104;-57
2021/11/28 02:44:31;;;;;;;;;;;;;;;20.04;37.97;93581.31;1044720;28;1077;-57
2021/11/28 02:45:02;;;;;;;;;;;;;;;20.06;38.04;93583.59;1044620;28;1045;-56
2021/11/28 02:45:32;;;;;;;;;;;;;;;20.05;38.00;93587.34;1043742;28;1981;-56
2021/11/28 02:46:03;;;;;;;;;;;;;;;20.05;38.24;93589.97;1044936;28;1068;-57
2021/11/28 02:46:34;;;;;;;;;;;;;;;20.05;37.74;93589.97;1045162;28;1273;-57
2021/11/28 02:47:04;;;;;;;;;;;;;;;20.05;37.95;93595.22;1043416;28;1493;-52
2021/11/28 02:47:35;;;;;;;;;;;;;;;20.05;37.77;93589.97;1044817;28;1059;-55
2021/11/28 02:48:06;;;;;;;;;;;;;;;20.05;37.82;93593.34;1044825;28;1116;-57
2021/11/28 02:48:38;;;;;;;;;;;;;;;20.06;37.82;93591.50;1044754;28;1486;-58
2021/11/28 02:49:08;;;;;;;;;;;;;;;20.06;37.75;93588.88;1044572;28;1178;-56
2021/11/28 02:49:39;;;;;;;;;;;;;;;20.06;37.60;93591.50;1044506;28;753;-56
2021/11/28 02:50:10;;;;;;;;;;;;;;;20.05;37.65;93590.72;1044626;28;1191;-57
2021/11/28 02:50:40;;;;;;;;;;;;;;;20.05;37.99;93582.09;1043366;28;1921;-58
2021/11/28 02:51:10;;;;;;;;;;;;;;;20.06;38.09;93581.75;1044750;28;1258;-57
2021/11/28 02:51:41;;;;;;;;;;;;;;;20.06;37.91;93579.13;1044484;28;1032;-53
2021/11/28 02:52:11;;;;;;;;;;;;;;;20.06;37.92;93583.59;1044176;28;1028;-56
2021/11/28 02:52:44;;;;;;;;;;;;;;;20.05;37.88;93582.84;1044630;28;1084;-56
2021/11/28 02:53:14;;;;;;;;;;;;;;;20.05;37.85;93576.81;1039498;28;1162;-58
2021/11/28 02:53:45;;;;;;;;;;;;;;;20.04;37.60;93578.69;1040158;28;1099;-58